Time;durP1;ratioP1;P1;durP2;ratioP2;P2;SDS_P1;SDS_P2;PMS_P1;PMS_P2;Temp;Humidity;BMP_temperature;BMP_pressure;BME280_temperature;BME280_humidity;BME280_pressure;Samples;Min_cycle;Max_cycle;Signal;HPM_P1;HPM_P2
2023/04/24 00:00:56;;;;;;;7.03;5.07;;;;;;;;;;4900761;29;20409;-69
2023/04/24 00:03:25;;;;;;;6.47;5.20;;;11.30;99.90;;;;;;4899450;29;20473;-69
2023/04/24 00:05:51;;;;;;;8.88;5.07;;;;;;;;;;4917328;29;20040;-69
2023/04/24 00:08:18;;;;;;;8.00;5.60;;;;;;;;;;4898243;29;20107;-69
2023/04/24 00:10:44;;;;;;;7.38;5.47;;;;;;;;;;4883538;29;20136;-69
2023/04/24 00:13:10;;;;;;;7.90;5.80;;;;;;;;;;4858863;29;20048;-69
2023/04/24 00:15:36;;;;;;;7.68;5.40;;;;;;;;;;4894969;29;20127;-69
2023/04/24 00:18:02;;;;;;;6.82;5.75;;;;;;;;;;4900402;29;20059;-69
2023/04/24 00:20:29;;;;;;;9.85;5.47;;;;;;;;;;4900507;29;20111;-69
2023/04/24 00:22:55;;;;;;;7.35;5.50;;;;;;;;;;4893395;29;20131;-69
2023/04/24 00:25:21;;;;;;;8.63;5.93;;;;;;;;;;4900809;29;20111;-69
2023/04/24 00:27:48;;;;;;;7.68;6.05;;;;;;;;;;4900079;29;20111;-70
2023/04/24 00:30:13;;;;;;;7.40;6.07;;;12.10;99.90;;;;;;4881213;29;20040;-69
2023/04/24 00:32:40;;;;;;;8.35;5.75;;;;;;;;;;4894709;29;20041;-70
2023/04/24 00:35:06;;;;;;;7.95;5.60;;;;;;;;;;4900134;29;20130;-69
2023/04/24 00:37:32;;;;;;;7.45;6.20;;;;;;;;;;4899942;29;20080;-70
2023/04/24 00:39:58;;;;;;;6.70;6.00;;;;;;;;;;4899966;29;20063;-68
2023/04/24 00:42:25;;;;;;;8.52;6.05;;;;;;;;;;4890284;29;20040;-70
2023/04/24 00:44:51;;;;;;;9.30;6.20;;;;;;;;;;4910056;29;20562;-68
2023/04/24 00:47:18;;;;;;;9.43;5.97;;;11.40;99.90;;;;;;4890561;29;20224;-69
2023/04/24 00:49:45;;;;;;;9.68;6.45;;;;;;;;;;4900683;29;20753;-70
2023/04/24 00:52:12;;;;;;;10.57;6.05;;;;;;;;;;4892329;29;20506;-70
2023/04/24 00:54:37;;;;;;;7.78;5.90;;;10.30;99.90;;;;;;4870470;29;20048;-69
2023/04/24 00:57:04;;;;;;;7.35;6.45;;;12.40;99.90;;;;;;4899905;29;20055;-69
2023/04/24 00:59:30;;;;;;;9.73;5.97;;;;;;;;;;4897996;29;20044;-69
2023/04/24 01:01:56;;;;;;;8.20;6.40;;;;;;;;;;4868899;29;20055;-69
2023/04/24 01:04:23;;;;;;;6.72;6.03;;;;;;;;;;4869146;29;20120;-69
2023/04/24 01:06:49;;;;;;;8.90;6.45;;;;;;;;;;4900065;29;20097;-69
2023/04/24 01:09:16;;;;;;;18.23;6.45;;;11.70;99.90;;;;;;4899823;29;20036;-69
2023/04/24 01:11:43;;;;;;;8.32;6.13;;;;;;;;;;4898084;29;20068;-69
2023/04/24 01:14:09;;;;;;;7.20;5.93;;;;;;;;;;4910070;29;20477;-69
2023/04/24 01:16:38;;;;;;;10.23;6.32;;;;;;;;;;4895034;29;20036;-69
2023/04/24 01:19:05;;;;;;;7.70;6.93;;;11.50;99.90;;;;;;4887530;29;20434;-69
2023/04/24 01:21:36;;;;;;;10.32;6.50;;;11.50;99.90;;;;;;4868177;29;20077;-69
2023/04/24 01:24:02;;;;;;;8.43;6.68;;;;;;;;;;4871113;29;20055;-69
2023/04/24 01:26:28;;;;;;;7.13;6.22;;;;;;;;;;4875037;29;20088;-69
2023/04/24 01:28:54;;;;;;;8.40;6.93;;;;;;;;;;4916147;29;20046;-68
2023/04/24 01:31:21;;;;;;;10.50;7.05;;;;;;;;;;4883645;29;20381;-68
2023/04/24 01:33:47;;;;;;;10.05;6.72;;;11.50;99.90;;;;;;4899030;29;20485;-68
2023/04/24 01:36:14;;;;;;;7.88;6.85;;;;;;;;;;4906271;29;20043;-68
2023/04/24 01:38:40;;;;;;;10.73;6.85;;;;;;;;;;4911229;29;20047;-69
2023/04/24 01:41:06;;;;;;;8.18;6.80;;;;;;;;;;4898584;29;20055;-69
2023/04/24 01:43:32;;;;;;;7.78;7.05;;;;;;;;;;4887869;29;20072;-69
2023/04/24 01:45:58;;;;;;;8.10;7.30;;;;;;;;;;4898902;29;20461;-69
2023/04/24 01:48:25;;;;;;;8.10;6.95;;;;;;;;;;4890826;29;20048;-69
2023/04/24 01:50:51;;;;;;;10.02;7.15;;;;;;;;;;4898834;29;20552;-70
2023/04/24 01:53:17;;;;;;;11.45;7.30;;;;;;;;;;4894326;29;20044;-70
2023/04/24 01:55:43;;;;;;;8.60;7.10;;;;;;;;;;4893944;29;20056;-70
2023/04/24 01:58:09;;;;;;;8.57;6.75;;;;;;;;;;4883285;29;20040;-70
2023/04/24 02:00:35;;;;;;;9.05;6.43;;;;;;;;;;4882426;29;20048;-69
2023/04/24 02:03:01;;;;;;;9.20;6.72;;;;;;;;;;4882089;29;20397;-69
2023/04/24 02:05:27;;;;;;;7.72;6.32;;;12.00;99.90;;;;;;4900836;29;20075;-68
2023/04/24 02:07:54;;;;;;;7.15;6.38;;;11.40;99.90;;;;;;4898409;29;20041;-68
2023/04/24 02:10:20;;;;;;;6.10;5.50;;;;;;;;;;4898416;29;20044;-68
2023/04/24 02:12:46;;;;;;;7.15;5.95;;;;;;;;;;4881421;29;20044;-68
2023/04/24 02:15:12;;;;;;;7.28;5.60;;;;;;;;;;4880383;29;20088;-68
2023/04/24 02:17:38;;;;;;;8.60;6.32;;;;;;;;;;4880961;29;20059;-68
2023/04/24 02:20:06;;;;;;;10.02;6.82;;;11.40;99.90;;;;;;4886678;29;20040;-68
2023/04/24 02:22:32;;;;;;;8.77;6.65;;;;;;;;;;4897451;29;20048;-67
2023/04/24 02:24:58;;;;;;;9.43;6.70;;;;;;;;;;4884400;29;20045;-67
2023/04/24 02:27:24;;;;;;;7.47;6.53;;;;;;;;;;4892874;29;20454;-67
2023/04/24 02:29:50;;;;;;;7.80;6.93;;;;;;;;;;4906161;29;20048;-67
2023/04/24 02:32:16;;;;;;;8.13;7.20;;;;;;;;;;4880606;29;20088;-68
2023/04/24 02:34:42;;;;;;;9.43;7.18;;;;;;;;;;4904333;29;20047;-67
2023/04/24 02:37:09;;;;;;;8.68;7.10;;;;;;;;;;4876908;29;20546;-67
2023/04/24 02:39:35;;;;;;;10.60;7.90;;;;;;;;;;4896244;29;20060;-67
2023/04/24 02:42:01;;;;;;;7.30;5.00;;;;;;;;;;4914519;29;20044;-66
2023/04/24 02:44:27;;;;;;;5.72;5.10;;;;;;;;;;4913063;29;20043;-67
2023/04/24 02:46:53;;;;;;;4.80;3.78;;;;;;;;;;4897187;29;20040;-67
2023/04/24 02:49:20;;;;;;;4.28;3.63;;;;;;;;;;4896336;29;20048;-67
2023/04/24 02:51:46;;;;;;;3.83;3.28;;;;;;;;;;4865410;29;20078;-68
2023/04/24 02:54:12;;;;;;;4.07;3.25;;;;;;;;;;4885591;29;20574;-68
2023/04/24 02:56:38;;;;;;;4.07;3.00;;;;;;;;;;4888919;29;20045;-67
2023/04/24 02:59:04;;;;;;;3.25;2.70;;;;;;;;;;4897083;29;20414;-67
2023/04/24 03:01:30;;;;;;;5.93;2.65;;;;;;;;;;4912867;29;20107;-67
2023/04/24 03:03:56;;;;;;;3.08;2.40;;;;;;;;;;4897300;29;20119;-66
2023/04/24 03:06:22;;;;;;;3.42;2.22;;;;;;;;;;4914125;29;20489;-67
2023/04/24 03:08:48;;;;;;;2.33;1.85;;;;;;;;;;4897465;29;20135;-67
2023/04/24 03:11:14;;;;;;;2.67;1.83;;;;;;;;;;4895834;29;20585;-67
2023/04/24 03:13:41;;;;;;;2.53;1.90;;;;;;;;;;4896868;29;20493;-67
2023/04/24 03:16:07;;;;;;;1.98;1.80;;;;;;;;;;4881872;29;20485;-68
2023/04/24 03:18:33;;;;;;;3.42;2.03;;;;;;;;;;4857967;29;1110211;-67
2023/04/24 03:20:59;;;;;;;4.00;1.80;;;;;;;;;;4886623;29;20409;-68
2023/04/24 03:23:25;;;;;;;2.60;1.90;;;;;;;;;;4883511;29;20474;-68
2023/04/24 03:25:51;;;;;;;3.10;1.83;;;;;;;;;;4884795;29;20068;-68
2023/04/24 03:28:17;;;;;;;2.50;1.77;;;;;;;;;;4901252;29;20033;-67
2023/04/24 03:30:43;;;;;;;2.10;1.90;;;;;;;;;;4889100;29;20052;-67
2023/04/24 03:33:09;;;;;;;2.05;1.85;;;10.90;99.90;;;;;;4911030;29;20047;-67
2023/04/24 03:35:36;;;;;;;3.95;2.28;;;;;;;;;;4917218;29;20115;-67
2023/04/24 03:38:04;;;;;;;4.75;2.53;;;;;;;;;;4887559;29;20041;-68
2023/04/24 03:40:30;;;;;;;4.65;3.22;;;;;;;;;;4887240;29;20071;-67
2023/04/24 03:42:56;;;;;;;3.90;3.38;;;;;;;;;;4901391;29;20043;-68
2023/04/24 03:45:22;;;;;;;4.70;3.50;;;;;;;;;;4895504;29;20234;-67
2023/04/24 03:47:48;;;;;;;5.88;4.05;;;;;;;;;;4907941;29;20533;-67
2023/04/24 03:50:14;;;;;;;5.95;4.00;;;;;;;;;;4917179;29;20040;-67
2023/04/24 03:52:40;;;;;;;6.15;3.97;;;;;;;;;;4891669;29;20067;-67
2023/04/24 03:55:07;;;;;;;7.20;4.40;;;;;;;;;;4884061;29;20045;-67
2023/04/24 03:57:33;;;;;;;4.93;3.90;;;;;;;;;;4883971;29;20055;-67
2023/04/24 03:59:59;;;;;;;6.15;4.10;;;;;;;;;;4885224;29;20115;-66
2023/04/24 04:02:25;;;;;;;5.22;3.13;;;;;;;;;;4894636;29;20048;-66
2023/04/24 04:04:51;;;;;;;6.65;3.13;;;;;;;;;;4900771;29;20046;-67
2023/04/24 04:07:17;;;;;;;3.80;2.95;;;11.20;99.90;;;;;;4917754;29;20040;-67
2023/04/24 04:09:43;;;;;;;7.47;3.00;;;;;;;;;;4900379;29;20044;-67
2023/04/24 04:12:09;;;;;;;5.57;3.03;;;;;;;;;;4887317;29;20048;-67
2023/04/24 04:14:35;;;;;;;5.35;3.50;;;;;;;;;;4868409;29;20059;-67
2023/04/24 04:17:01;;;;;;;5.38;3.58;;;;;;;;;;4907307;29;20135;-67
2023/04/24 04:19:27;;;;;;;5.93;3.65;;;;;;;;;;4892878;29;20079;-67
2023/04/24 04:21:55;;;;;;;10.52;5.57;;;;;;;;;;4901359;29;20393;-67
2023/04/24 04:24:22;;;;;;;12.20;5.60;;;;;;;;;;4905064;29;20036;-67
2023/04/24 04:26:51;;;;;;;7.95;6.38;;;;;;;;;;4917204;29;20123;-66
2023/04/24 04:29:20;;;;;;;9.30;6.70;;;;;;;;;;4890332;29;20051;-66
2023/04/24 04:31:46;;;;;;;9.00;6.63;;;;;;;;;;4900461;29;20061;-66
2023/04/24 04:34:13;;;;;;;10.88;6.20;;;;;;;;;;4895554;29;20055;-66
2023/04/24 04:36:39;;;;;;;7.68;5.15;;;;;;;;;;4900336;29;20068;-66
2023/04/24 04:39:06;;;;;;;9.27;5.10;;;;;;;;;;4882883;29;20063;-67
2023/04/24 04:41:35;;;;;;;10.40;4.88;;;;;;;;;;4900094;29;20048;-67
2023/04/24 04:44:01;;;;;;;11.23;4.07;;;;;;;;;;4891676;29;20123;-67
2023/04/24 04:46:27;;;;;;;6.63;3.90;;;;;;;;;;4884676;29;20519;-68
2023/04/24 04:48:54;;;;;;;6.57;4.22;;;;;;;;;;4887093;29;20037;-68
2023/04/24 04:51:20;;;;;;;9.02;4.93;;;;;;;;;;4883056;29;20040;-68
2023/04/24 04:53:46;;;;;;;10.65;6.10;;;;;;;;;;4883920;29;20100;-68
2023/04/24 04:56:13;;;;;;;13.23;7.68;;;;;;;;;;4883267;29;20108;-68
2023/04/24 04:58:39;;;;;;;13.70;8.52;;;;;;;;;;4895964;29;20067;-68
2023/04/24 05:01:05;;;;;;;11.93;8.60;;;;;;;;;;4899867;29;20082;-68
2023/04/24 05:03:31;;;;;;;17.45;9.43;;;;;;;;;;4898974;29;20036;-68
2023/04/24 05:05:57;;;;;;;14.18;9.05;;;9.90;99.90;;;;;;4916480;29;20084;-69
2023/04/24 05:08:24;;;;;;;17.60;9.15;;;;;;;;;;4915627;29;20055;-69
2023/04/24 05:10:50;;;;;;;17.25;9.27;;;;;;;;;;4898614;29;20047;-69
2023/04/24 05:13:16;;;;;;;15.10;8.73;;;;;;;;;;4882765;29;20087;-69
2023/04/24 05:15:42;;;;;;;17.65;7.63;;;;;;;;;;4882386;29;20523;-69
2023/04/24 05:18:08;;;;;;;13.55;6.38;;;;;;;;;;4866823;29;20053;-69
2023/04/24 05:20:34;;;;;;;10.57;5.78;;;;;;;;;;4888161;29;20464;-69
2023/04/24 05:23:00;;;;;;;6.70;4.65;;;;;;;;;;4882750;29;20048;-69
2023/04/24 05:25:26;;;;;;;6.70;4.40;;;;;;;;;;4869178;29;20036;-69
2023/04/24 05:27:53;;;;;;;8.23;4.10;;;8.90;99.90;;;;;;4916002;29;20043;-69
2023/04/24 05:30:19;;;;;;;5.03;3.42;;;;;;;;;;4913085;29;20039;-69
2023/04/24 05:32:46;;;;;;;6.53;3.60;;;;;;;;;;4881751;29;20048;-69
2023/04/24 05:35:12;;;;;;;7.95;3.90;;;;;;;;;;4864037;29;20056;-69
2023/04/24 05:37:38;;;;;;;4.80;3.60;;;;;;;;;;4888765;29;20123;-69
2023/04/24 05:40:05;;;;;;;8.27;3.78;;;;;;;;;;4886881;29;20052;-69
2023/04/24 05:42:32;;;;;;;7.88;3.85;;;;;;;;;;4892941;29;20049;-69
2023/04/24 05:44:58;;;;;;;5.93;3.90;;;;;;;;;;4897760;29;20109;-69
2023/04/24 05:47:24;;;;;;;8.68;4.05;;;;;;;;;;4898067;29;20091;-69
2023/04/24 05:49:50;;;;;;;7.90;4.10;;;;;;;;;;4882994;29;20140;-70
2023/04/24 05:52:16;;;;;;;5.55;4.20;;;;;;;;;;4883023;29;20130;-70
2023/04/24 05:54:42;;;;;;;6.72;3.40;;;;;;;;;;4897018;29;20144;-70
2023/04/24 05:57:08;;;;;;;7.43;3.08;;;;;;;;;;4885463;29;20416;-70
2023/04/24 05:59:38;;;;;;;5.35;3.03;;;;;;;;;;4887684;29;20048;-70
2023/04/24 06:02:04;;;;;;;8.05;3.17;;;;;;;;;;4886770;29;20091;-69
2023/04/24 06:04:30;;;;;;;9.80;3.00;;;;;;;;;;4883550;29;20073;-70
2023/04/24 06:06:56;;;;;;;5.38;3.03;;;;;;;;;;4887781;29;20041;-69
2023/04/24 06:09:23;;;;;;;12.50;3.22;;;;;;;;;;4882939;29;20053;-70
2023/04/24 06:11:49;;;;;;;8.15;3.40;;;9.70;99.90;;;;;;4903928;29;20044;-70
2023/04/24 06:14:15;;;;;;;7.68;3.22;;;;;;;;;;4881839;29;20119;-70
2023/04/24 06:16:42;;;;;;;6.97;3.17;;;;;;;;;;4896607;29;20489;-70
2023/04/24 06:19:09;;;;;;;7.10;2.92;;;;;;;;;;4911018;29;20051;-69
2023/04/24 06:21:35;;;;;;;5.78;3.00;;;;;;;;;;4908240;29;20066;-70
2023/04/24 06:24:01;;;;;;;6.68;2.63;;;;;;;;;;4892013;29;20091;-70
2023/04/24 06:26:28;;;;;;;5.63;2.25;;;;;;;;;;4891856;29;20493;-68
2023/04/24 06:28:54;;;;;;;4.00;2.30;;;;;;;;;;4896673;29;20048;-68
2023/04/24 06:31:21;;;;;;;7.53;3.10;;;;;;;;;;4880948;29;20103;-67
2023/04/24 06:33:47;;;;;;;10.18;4.57;;;;;;;;;;4885684;29;20052;-68
2023/04/24 06:36:13;;;;;;;15.10;6.22;;;;;;;;;;4881611;29;20044;-70
2023/04/24 06:38:39;;;;;;;14.10;6.03;;;;;;;;;;4892092;29;20123;-68
2023/04/24 06:41:06;;;;;;;15.52;8.25;;;;;;;;;;4889602;29;20048;-68
2023/04/24 06:43:32;;;;;;;18.65;8.63;;;;;;;;;;4895170;29;20434;-68
2023/04/24 06:45:58;;;;;;;19.10;10.18;;;;;;;;;;4884536;29;20040;-68
2023/04/24 06:48:25;;;;;;;24.27;11.68;;;;;;;;;;4916848;29;20048;-69
2023/04/24 06:50:51;;;;;;;25.80;13.00;;;;;;;;;;4916939;29;20127;-68
2023/04/24 06:53:17;;;;;;;25.70;12.63;;;;;;;;;;4899754;29;20052;-68
2023/04/24 06:55:45;;;;;;;23.40;11.88;;;;;;;;;;4891961;29;20048;-68
2023/04/24 06:58:11;;;;;;;22.30;10.95;;;;;;;;;;4876020;29;20055;-68
2023/04/24 07:00:38;;;;;;;22.20;11.95;;;;;;;;;;4893380;29;20048;-68
2023/04/24 07:03:06;;;;;;;20.02;10.85;;;;;;;;;;4898917;29;20103;-68
2023/04/24 07:05:35;;;;;;;23.88;11.30;;;;;;;;;;4893594;29;20040;-68
2023/04/24 07:08:01;;;;;;;16.20;9.02;;;;;;;;;;4893999;29;20098;-68
2023/04/24 07:10:28;;;;;;;22.38;9.95;;;;;;;;;;4898534;29;20049;-68
2023/04/24 07:12:56;;;;;;;21.30;10.27;;;9.30;99.90;;;;;;4903778;29;20084;-68
2023/04/24 07:15:22;;;;;;;26.45;11.88;;;;;;;;;;4885203;29;20098;-68
2023/04/24 07:17:48;;;;;;;22.80;12.68;;;;;;;;;;4884425;29;20083;-68
2023/04/24 07:20:15;;;;;;;19.58;12.20;;;;;;;;;;4900087;29;20048;-68
2023/04/24 07:22:41;;;;;;;23.25;13.43;;;;;;;;;;4871944;29;20047;-68
2023/04/24 07:25:08;;;;;;;28.30;13.10;;;;;;;;;;4874553;29;20116;-68
2023/04/24 07:27:35;;;;;;;26.17;12.75;;;9.40;99.90;;;;;;4902479;29;20084;-68
2023/04/24 07:30:01;;;;;;;28.52;12.50;;;;;;;;;;4912082;29;20045;-68
2023/04/24 07:32:28;;;;;;;29.60;14.23;;;;;;;;;;4903511;29;20044;-68
2023/04/24 07:34:54;;;;;;;26.70;13.65;;;;;;;;;;4887771;29;20036;-68
2023/04/24 07:37:20;;;;;;;22.20;13.07;;;;;;;;;;4902631;29;20044;-68
2023/04/24 07:39:46;;;;;;;23.13;12.43;;;;;;;;;;4901199;29;20056;-69
2023/04/24 07:42:12;;;;;;;24.02;12.20;;;;;;;;;;4873521;29;20040;-69
2023/04/24 07:44:38;;;;;;;22.33;11.77;;;;;;;;;;4889179;29;20049;-69
2023/04/24 07:47:04;;;;;;;15.38;9.35;;;;;;;;;;4897290;29;20131;-69
2023/04/24 07:49:30;;;;;;;17.58;8.23;;;;;;;;;;4886477;29;20041;-69
2023/04/24 07:51:56;;;;;;;18.20;10.38;;;;;;;;;;4895316;29;20047;-69
2023/04/24 07:54:23;;;;;;;13.75;7.57;;;;;;;;;;4919560;29;20044;-69
2023/04/24 07:56:49;;;;;;;18.90;7.82;;;;;;;;;;4901161;29;20072;-69
2023/04/24 07:59:15;;;;;;;14.15;8.35;;;;;;;;;;4886483;29;20036;-69
2023/04/24 08:01:41;;;;;;;14.98;7.28;;;;;;;;;;4901306;29;20449;-69
2023/04/24 08:04:07;;;;;;;15.35;7.60;;;;;;;;;;4885530;29;20044;-69
2023/04/24 08:06:33;;;;;;;17.13;7.85;;;;;;;;;;4880132;29;20063;-68
2023/04/24 08:09:00;;;;;;;13.85;8.10;;;9.40;99.90;;;;;;4852998;29;20045;-69
2023/04/24 08:11:26;;;;;;;14.90;7.38;;;;;;;;;;4883520;29;20048;-69
2023/04/24 08:13:52;;;;;;;16.25;7.32;;;;;;;;;;4868299;29;20056;-69
2023/04/24 08:16:18;;;;;;;13.35;6.72;;;;;;;;;;4884041;29;20045;-69
2023/04/24 08:18:45;;;;;;;16.38;7.55;;;;;;;;;;4900474;29;20075;-69
2023/04/24 08:21:12;;;;;;;15.18;7.80;;;;;;;;;;4884003;29;20434;-69
2023/04/24 08:23:38;;;;;;;12.23;6.45;;;;;;;;;;4883723;29;20045;-69
2023/04/24 08:26:07;;;;;;;16.55;7.95;;;;;;;;;;4883802;29;20051;-69
2023/04/24 08:28:33;;;;;;;15.02;6.65;;;;;;;;;;4900590;29;20056;-69
2023/04/24 08:30:59;;;;;;;15.05;6.82;;;;;;;;;;4868326;29;20044;-69
2023/04/24 08:33:25;;;;;;;15.68;6.15;;;;;;;;;;4883938;29;20052;-69
2023/04/24 08:35:51;;;;;;;19.08;6.82;;;;;;;;;;4883608;29;20438;-69
2023/04/24 08:38:17;;;;;;;14.25;6.28;;;;;;;;;;4900205;29;20505;-69
2023/04/24 08:40:45;;;;;;;17.00;8.45;;;;;;;;;;4883980;29;20051;-69
2023/04/24 08:43:13;;;;;;;15.50;5.75;;;9.60;99.90;;;;;;4883512;29;20049;-69
2023/04/24 08:45:39;;;;;;;14.80;5.18;;;;;;;;;;4883473;29;20049;-68
2023/04/24 08:48:05;;;;;;;16.05;5.18;;;;;;;;;;4883244;29;20048;-68
2023/04/24 08:50:32;;;;;;;13.75;5.28;;;9.90;99.90;;;;;;4883286;29;20052;-69
2023/04/24 08:52:58;;;;;;;12.18;5.30;;;;;;;;;;4883397;29;20494;-69
2023/04/24 08:55:25;;;;;;;12.90;5.18;;;9.60;99.90;;;;;;4883529;29;20040;-69
2023/04/24 08:57:53;;;;;;;12.70;4.85;;;9.80;99.90;;;;;;4899889;29;20041;-69
2023/04/24 09:00:20;;;;;;;12.38;5.50;;;10.00;99.90;;;;;;4883112;29;20117;-69
2023/04/24 09:02:49;;;;;;;9.32;3.83;;;10.20;99.90;;;;;;4883077;29;20056;-69
2023/04/24 09:05:17;;;;;;;10.00;3.95;;;10.10;99.90;;;;;;4883003;29;20055;-69
2023/04/24 09:07:46;;;;;;;9.68;3.75;;;10.20;99.90;;;;;;4899927;29;20049;-69
2023/04/24 09:10:12;;;;;;;14.95;4.38;;;;;;;;;;4867337;29;20064;-69
2023/04/24 09:12:38;;;;;;;15.77;4.35;;;;;;;;;;4883068;29;20052;-69
2023/04/24 09:15:05;;;;;;;14.23;4.47;;;;;;;;;;4883050;29;20048;-70
2023/04/24 09:17:31;;;;;;;16.52;4.38;;;;;;;;;;4882609;29;20052;-69
2023/04/24 09:19:57;;;;;;;12.13;4.03;;;;;;;;;;4882659;29;20049;-69
2023/04/24 09:22:24;;;;;;;17.33;4.00;;;;;;;;;;4881981;29;20513;-69
2023/04/24 09:25:02;;;;;;;14.52;4.15;;;10.20;99.90;;;;;;4882684;29;20100;-69
2023/04/24 09:27:28;;;;;;;11.30;3.40;;;10.20;99.90;;;;;;4882541;29;20537;-69
2023/04/24 09:29:55;;;;;;;16.60;3.58;;;10.10;99.90;;;;;;4882708;29;20048;-69
2023/04/24 09:32:25;;;;;;;17.30;3.95;;;10.40;99.90;;;;;;4882517;29;20048;-69
2023/04/24 09:35:11;;;;;;;9.52;3.47;;;10.40;99.90;;;;;;4882686;29;20091;-68
2023/04/24 09:37:45;;;;;;;11.13;3.40;;;10.10;99.90;;;;;;4882243;29;20680;-68
2023/04/24 09:40:19;;;;;;;11.20;3.38;;;10.20;99.90;;;;;;4899279;29;20044;-68
2023/04/24 09:42:52;;;;;;;13.98;3.40;;;;;;;;;;4882308;29;20509;-68
2023/04/24 09:45:18;;;;;;;9.75;3.13;;;10.30;99.90;;;;;;4882131;29;20040;-69
2023/04/24 09:47:43;;;;;;;12.93;3.28;;;10.10;99.90;;;;;;4882545;29;20051;-68
2023/04/24 09:50:14;;;;;;;8.88;2.83;;;10.50;99.90;;;;;;4882176;29;20485;-71
2023/04/24 09:52:42;;;;;;;8.70;3.25;;;;;;;;;;4882120;29;20048;-69
2023/04/24 09:55:13;;;;;;;12.95;3.15;;;11.20;99.90;;;;;;4898986;29;20398;-69
2023/04/24 09:57:49;;;;;;;12.10;3.00;;;;;;;;;;4881927;29;20049;-69
2023/04/24 10:00:26;;;;;;;15.90;3.40;;;10.50;99.90;;;;;;4898823;29;20079;-68
2023/04/24 10:03:03;;;;;;;11.35;2.80;;;10.60;99.90;;;;;;4879589;29;20053;-69
2023/04/24 10:05:34;;;;;;;9.07;2.90;;;;;;;;;;4881926;29;20060;-69
2023/04/24 10:08:09;;;;;;;12.90;2.38;;;10.40;99.90;;;;;;4881946;29;20041;-69
2023/04/24 10:10:45;;;;;;;12.68;2.78;;;10.50;99.90;;;;;;4881760;29;20043;-69
2023/04/24 10:13:13;;;;;;;13.63;3.38;;;10.50;99.90;;;;;;4895268;29;20123;-70
2023/04/24 10:15:40;;;;;;;12.40;3.38;;;10.30;99.90;;;;;;4903845;29;20059;-69
2023/04/24 10:18:06;;;;;;;11.85;2.80;;;;;;;;;;4885045;29;20052;-69
2023/04/24 10:20:33;;;;;;;9.13;2.20;;;10.50;99.90;;;;;;4891555;29;20079;-70
2023/04/24 10:23:00;;;;;;;10.32;2.40;;;10.50;99.90;;;;;;4868438;29;20043;-70
2023/04/24 10:25:34;;;;;;;8.60;2.22;;;10.50;99.90;;;;;;4880735;29;20388;-70
2023/04/24 10:28:01;;;;;;;15.45;4.30;;;10.60;99.90;;;;;;4881299;29;20055;-70
2023/04/24 10:30:34;;;;;;;15.15;2.97;;;;;;;;;;4865454;29;20385;-70
2023/04/24 10:33:07;;;;;;;12.40;2.60;;;10.70;99.90;;;;;;4889172;29;20048;-68
2023/04/24 10:35:37;;;;;;;10.10;2.28;;;10.60;99.90;;;;;;4867659;29;20041;-68
2023/04/24 10:38:10;;;;;;;14.95;2.97;;;10.60;99.90;;;;;;4897565;29;20143;-68
2023/04/24 10:40:37;;;;;;;11.18;3.53;;;;;;;;;;4898267;29;20043;-69
2023/04/24 10:43:06;;;;;;;7.00;1.98;;;10.80;99.90;;;;;;4867983;29;20172;-69
2023/04/24 10:45:32;;;;;;;12.60;2.53;;;;;;;;;;4886884;29;20055;-70
2023/04/24 10:48:01;;;;;;;11.60;2.40;;;10.50;99.90;;;;;;4900769;29;20039;-68
2023/04/24 10:50:51;;;;;;;9.18;2.15;;;10.70;99.90;;;;;;4895513;29;20167;-68
2023/04/24 10:53:18;;;;;;;7.40;1.95;;;;;;;;;;4910458;29;20036;-69
2023/04/24 10:55:56;;;;;;;11.95;2.45;;;10.60;99.90;;;;;;4893601;29;20048;-69
2023/04/24 10:58:23;;;;;;;10.90;2.67;;;10.50;99.90;;;;;;4913469;29;20044;-70
2023/04/24 11:00:57;;;;;;;7.10;2.55;;;10.40;99.90;;;;;;4885558;29;20485;-70
2023/04/24 11:03:24;;;;;;;6.68;1.98;;;10.30;99.90;;;;;;4882114;29;20048;-70
2023/04/24 11:05:53;;;;;;;11.70;3.00;;;10.10;99.90;;;;;;4876568;29;20469;-70
2023/04/24 11:08:28;;;;;;;8.30;2.03;;;10.00;99.90;;;;;;4891293;29;20040;-70
2023/04/24 11:10:59;;;;;;;6.43;1.77;;;10.70;99.90;;;;;;4912347;29;20048;-69
2023/04/24 11:13:27;;;;;;;5.93;1.90;;;10.00;99.90;;;;;;4894444;29;20055;-68
2023/04/24 11:16:12;;;;;;;7.53;1.95;;;;;;;;;;4909174;29;20063;-68
2023/04/24 11:18:45;;;;;;;4.43;1.70;;;10.80;99.90;;;;;;4884197;29;20045;-69
2023/04/24 11:21:11;;;;;;;;;;;9.80;99.90;;;;;;4892332;29;20048;-69
2023/04/24 11:23:38;;;;;;;4.65;1.45;;;;;;;;;;4882947;29;19923;-69
2023/04/24 11:26:17;;;;;;;13.77;2.65;;;9.60;99.90;;;;;;4893146;29;20047;-69
2023/04/24 11:28:49;;;;;;;8.10;1.90;;;;;;;;;;4891939;29;20428;-68
2023/04/24 11:31:34;;;;;;;;;;;10.40;99.90;;;;;;4882774;29;20051;-69
2023/04/24 11:34:10;;;;;;;9.23;1.83;;;10.40;99.90;;;;;;4887912;29;19965;-68
2023/04/24 11:36:36;;;;;;;12.30;1.88;;;;;;;;;;4890197;29;20048;-68
2023/04/24 11:39:02;;;;;;;4.90;1.60;;;;;;;;;;4890615;29;20045;-69
2023/04/24 11:41:28;;;;;;;6.22;1.63;;;;;;;;;;4892751;29;20044;-68
2023/04/24 11:43:56;;;;;;;7.10;1.50;;;10.00;99.90;;;;;;4881408;29;20124;-69
2023/04/24 11:46:22;;;;;;;6.90;1.67;;;;;;;;;;4883886;29;20478;-69
2023/04/24 11:48:48;;;;;;;4.72;1.95;;;;;;;;;;4901374;29;20051;-68
2023/04/24 11:51:15;;;;;;;13.23;1.73;;;10.80;99.90;;;;;;4884144;29;20052;-67
2023/04/24 11:53:41;;;;;;;12.85;1.75;;;;;;;;;;4883898;29;20049;-67
2023/04/24 11:56:08;;;;;;;6.60;1.80;;;10.50;99.90;;;;;;4900966;29;20044;-68
2023/04/24 11:58:41;;;;;;;11.13;1.92;;;;;;;;;;4884374;29;20052;-67
2023/04/24 12:01:06;;;;;;;;;;;10.50;99.90;;;;;;4901174;29;20096;-68
2023/04/24 12:03:33;;;;;;;7.10;1.75;;;;;;;;;;4884008;29;19920;-68
2023/04/24 12:06:07;;;;;;;2.42;1.15;;;;;;;;;;4884100;29;20044;-68
2023/04/24 12:08:33;;;;;;;12.95;1.40;;;;;;;;;;4884046;29;20056;-68
2023/04/24 12:11:04;;;;;;;4.50;1.30;;;11.10;99.90;;;;;;4883863;29;20493;-68
2023/04/24 12:13:30;;;;;;;8.65;1.40;;;;;;;;;;4868615;29;20074;-67
2023/04/24 12:16:00;;;;;;;5.38;1.10;;;10.90;99.90;;;;;;4900875;29;20055;-67
2023/04/24 12:18:26;;;;;;;7.32;1.48;;;10.90;99.90;;;;;;4868265;29;20068;-68
2023/04/24 12:20:52;;;;;;;3.47;1.17;;;;;;;;;;4882604;29;20141;-67
2023/04/24 12:23:35;;;;;;;2.95;1.20;;;11.00;99.90;;;;;;4883855;29;20044;-68
2023/04/24 12:26:04;;;;;;;5.68;1.60;;;11.20;99.90;;;;;;4884020;29;20103;-68
2023/04/24 12:28:36;;;;;;;8.23;1.58;;;11.20;99.90;;;;;;4883817;29;20096;-68
2023/04/24 12:31:02;;;;;;;4.70;1.55;;;11.90;99.90;;;;;;4883626;29;20414;-68
2023/04/24 12:33:32;;;;;;;5.78;1.52;;;12.20;99.90;;;;;;4883485;29;20096;-68
2023/04/24 12:35:58;;;;;;;4.53;1.30;;;;;;;;;;4900128;29;20048;-68
2023/04/24 12:38:25;;;;;;;6.05;1.58;;;;;;;;;;4883474;29;20100;-68
2023/04/24 12:41:03;;;;;;;4.15;1.67;;;11.40;99.90;;;;;;4868130;29;20043;-68
2023/04/24 12:43:30;;;;;;;4.38;1.00;;;;;;;;;;4883443;29;20048;-67
2023/04/24 12:45:56;;;;;;;5.43;1.15;;;;;;;;;;4883405;29;20537;-68
2023/04/24 12:48:22;;;;;;;4.60;1.60;;;;;;;;;;4900314;29;20092;-68
2023/04/24 12:50:49;;;;;;;4.03;1.33;;;;;;;;;;4883655;29;20103;-68
2023/04/24 12:53:15;;;;;;;6.03;1.35;;;;;;;;;;4883322;29;20493;-69
2023/04/24 12:55:42;;;;;;;5.28;1.15;;;;;;;;;;4883166;29;20048;-68
2023/04/24 12:58:08;;;;;;;5.72;1.25;;;;;;;;;;4899360;29;20154;-69
2023/04/24 13:00:34;;;;;;;5.72;1.27;;;;;;;;;;4900004;29;20047;-69
2023/04/24 13:03:01;;;;;;;9.98;2.05;;;;;;;;;;4899794;29;20045;-69
2023/04/24 13:05:27;;;;;;;8.18;1.90;;;;;;;;;;4899903;29;20032;-69
2023/04/24 13:07:53;;;;;;;7.68;1.90;;;;;;;;;;4882925;29;20080;-68
2023/04/24 13:10:19;;;;;;;7.75;1.98;;;;;;;;;;4882974;29;20063;-69
2023/04/24 13:12:46;;;;;;;10.02;2.08;;;10.50;99.90;;;;;;4899644;29;20048;-69
2023/04/24 13:15:13;;;;;;;14.05;2.30;;;;;;;;;;4882874;29;20123;-68
2023/04/24 13:17:38;;;;;;;6.82;1.90;;;10.40;99.90;;;;;;4899615;29;20092;-68
2023/04/24 13:20:05;;;;;;;14.88;2.05;;;;;;;;;;4882784;29;20052;-68
2023/04/24 13:22:31;;;;;;;8.23;2.17;;;;;;;;;;4882790;29;20045;-68
2023/04/24 13:24:57;;;;;;;9.63;2.08;;;;;;;;;;4899665;29;20063;-67
2023/04/24 13:27:23;;;;;;;17.10;3.17;;;;;;;;;;4882709;29;20048;-67
2023/04/24 13:29:49;;;;;;;9.30;2.22;;;;;;;;;;4882723;29;20049;-68
2023/04/24 13:32:15;;;;;;;13.95;3.05;;;;;;;;;;4867164;29;20132;-68
2023/04/24 13:34:41;;;;;;;13.02;2.58;;;;;;;;;;4899400;29;20065;-68
2023/04/24 13:37:08;;;;;;;13.68;2.55;;;;;;;;;;4899739;29;20045;-67
2023/04/24 13:39:34;;;;;;;10.65;1.98;;;;;;;;;;4882834;29;20049;-67
2023/04/24 13:42:01;;;;;;;12.98;4.53;;;;;;;;;;4899336;29;20064;-67
2023/04/24 13:44:27;;;;;;;4.32;1.70;;;;;;;;;;4898920;29;20119;-68
2023/04/24 13:46:56;;;;;;;9.25;2.47;;;10.30;99.90;;;;;;4884101;29;20047;-68
2023/04/24 13:49:24;;;;;;;4.35;1.63;;;;;;;;;;4900150;29;20123;-70
2023/04/24 13:51:50;;;;;;;13.93;2.10;;;;;;;;;;4911554;29;20122;-69
2023/04/24 13:54:17;;;;;;;7.55;2.10;;;;;;;;;;4883609;29;20112;-68
2023/04/24 13:56:43;;;;;;;11.63;2.28;;;;;;;;;;4888109;29;20048;-68
2023/04/24 13:59:09;;;;;;;8.60;2.40;;;;;;;;;;4887660;29;20512;-68
2023/04/24 14:01:35;;;;;;;9.90;2.50;;;;;;;;;;4884222;29;20135;-68
2023/04/24 14:04:01;;;;;;;11.77;2.53;;;;;;;;;;4874686;29;20085;-68
2023/04/24 14:06:28;;;;;;;18.67;3.97;;;;;;;;;;4882274;29;20309;-68